createdAt,value
2023-02-24T00:02:01.148Z,18.52
2023-02-24T00:04:35.150Z,19.92
2023-02-24T00:07:03.004Z,19.05
2023-02-24T00:09:33.501Z,18.73
2023-02-24T00:12:10.414Z,18.98
2023-02-24T00:14:41.823Z,18.50
2023-02-24T00:17:10.816Z,18.60
2023-02-24T00:19:38.586Z,19.88
2023-02-24T00:22:08.683Z,21.83
2023-02-24T00:24:36.969Z,19.80
2023-02-24T00:27:12.389Z,19.55
2023-02-24T00:32:13.361Z,19.55
2023-02-24T00:34:41.384Z,20.08
2023-02-24T00:37:09.326Z,20.40
2023-02-24T00:39:42.001Z,19.80
2023-02-24T00:42:09.536Z,20.58
2023-02-24T00:44:41.032Z,20.80
2023-02-24T00:47:10.578Z,20.23
2023-02-24T00:49:42.476Z,19.55
2023-02-24T00:52:17.250Z,20.83
2023-02-24T00:54:47.532Z,21.53
2023-02-24T00:57:18.464Z,19.85
2023-02-24T00:59:48.269Z,19.63
2023-02-24T01:02:16.500Z,18.98
2023-02-24T01:04:45.099Z,19.55
2023-02-24T01:07:13.056Z,20.98
2023-02-24T01:09:42.113Z,18.50
2023-02-24T01:12:38.644Z,18.38
2023-02-24T01:15:10.126Z,18.20
2023-02-24T01:17:38.176Z,17.88
2023-02-24T01:20:18.381Z,17.63
2023-02-24T01:22:53.424Z,17.33
2023-02-24T01:25:20.793Z,17.17
2023-02-24T01:27:48.591Z,18.13
2023-02-24T01:30:16.357Z,19.13
2023-02-24T01:32:44.543Z,16.98
2023-02-24T01:35:12.276Z,18.60
2023-02-24T01:37:39.825Z,16.15
2023-02-24T01:40:20.835Z,16.00
2023-02-24T01:42:49.468Z,16.20
2023-02-24T01:45:22.761Z,16.02
2023-02-24T01:47:54.084Z,15.25
2023-02-24T01:50:26.323Z,14.95
2023-02-24T01:53:02.597Z,17.13
2023-02-24T01:55:47.221Z,15.05
2023-02-24T01:58:24.129Z,15.13
2023-02-24T02:00:52.293Z,16.48
2023-02-24T02:03:36.510Z,15.68
2023-02-24T02:06:12.050Z,15.55
2023-02-24T02:08:43.131Z,16.10
2023-02-24T02:11:21.415Z,15.68
2023-02-24T02:13:52.901Z,14.82
2023-02-24T02:16:38.218Z,13.45
2023-02-24T02:19:44.883Z,12.10
2023-02-24T02:23:07.629Z,12.25
2023-02-24T02:26:24.768Z,11.70
2023-02-24T02:29:22.146Z,12.48
2023-02-24T02:32:40.261Z,11.55
2023-02-24T02:35:23.808Z,10.52
2023-02-24T02:38:05.061Z,10.80
2023-02-24T02:40:45.818Z,11.63
2023-02-24T02:43:31.078Z,10.45
2023-02-24T02:46:03.979Z,10.48
2023-02-24T02:48:41.410Z,10.48
2023-02-24T02:51:18.958Z,11.60
2023-02-24T02:54:11.321Z,10.57
2023-02-24T02:56:47.217Z,10.68
2023-02-24T02:59:22.705Z,10.75
2023-02-24T03:02:01.250Z,11.20
2023-02-24T03:04:30.391Z,11.00
2023-02-24T03:07:03.462Z,11.40
2023-02-24T03:09:39.994Z,11.63
2023-02-24T03:12:14.762Z,10.77
2023-02-24T03:17:24.999Z,10.80
2023-02-24T03:20:15.130Z,11.23
2023-02-24T03:22:51.756Z,11.52
2023-02-24T03:25:35.004Z,11.68
2023-02-24T03:28:29.203Z,10.65
2023-02-24T03:31:11.122Z,12.27
2023-02-24T03:33:46.820Z,11.50
2023-02-24T03:36:15.181Z,10.77
2023-02-24T03:38:43.985Z,11.07
2023-02-24T03:41:11.484Z,10.52
2023-02-24T03:43:46.870Z,10.73
2023-02-24T03:46:17.171Z,10.02
2023-02-24T03:48:53.112Z,10.32
2023-02-24T03:51:23.483Z,10.25
2023-02-24T03:54:06.542Z,9.73
2023-02-24T03:56:40.590Z,9.95
2023-02-24T03:59:46.940Z,10.32
2023-02-24T04:02:30.498Z,10.18
2023-02-24T04:05:24.111Z,10.93
2023-02-24T04:08:04.318Z,10.43
2023-02-24T04:11:10.400Z,10.48
2023-02-24T04:16:36.681Z,10.48
2023-02-24T04:19:14.122Z,10.30
2023-02-24T04:21:48.472Z,9.63
2023-02-24T04:24:21.487Z,10.52
2023-02-24T04:26:51.385Z,10.10
2023-02-24T04:29:23.898Z,10.55
2023-02-24T04:32:03.944Z,10.50
2023-02-24T04:34:32.680Z,11.13
2023-02-24T04:37:02.381Z,10.65
2023-02-24T04:39:32.057Z,10.82
2023-02-24T04:42:01.756Z,10.68
2023-02-24T04:44:29.221Z,10.52
2023-02-24T04:46:56.665Z,10.13
2023-02-24T04:49:23.889Z,11.20
2023-02-24T04:51:51.727Z,10.77
2023-02-24T04:54:21.191Z,11.52
2023-02-24T04:56:54.103Z,10.60
2023-02-24T04:59:23.250Z,11.30
2023-02-24T05:01:55.040Z,10.82
2023-02-24T05:04:22.420Z,10.95
2023-02-24T05:06:49.444Z,10.15
2023-02-24T05:09:18.266Z,10.65
2023-02-24T05:11:50.708Z,9.45
2023-02-24T05:14:24.812Z,10.77
2023-02-24T05:16:51.836Z,11.18
2023-02-24T05:19:38.901Z,10.40
2023-02-24T05:22:07.261Z,10.75
2023-02-24T05:24:34.992Z,11.52
2023-02-24T05:27:03.951Z,12.43
2023-02-24T05:29:34.780Z,9.57
2023-02-24T05:32:04.114Z,10.75
2023-02-24T05:34:33.610Z,10.65
2023-02-24T05:37:10.206Z,10.77
2023-02-24T05:39:37.986Z,11.00
2023-02-24T05:42:06.866Z,10.75
2023-02-24T05:44:35.985Z,10.82
2023-02-24T05:47:05.517Z,11.00
2023-02-24T05:49:35.548Z,10.48
2023-02-24T05:52:09.211Z,10.93
2023-02-24T05:54:45.357Z,10.57
2023-02-24T05:57:19.502Z,11.13
2023-02-24T05:59:53.349Z,11.07
2023-02-24T06:02:27.875Z,11.25
2023-02-24T06:04:55.733Z,10.70
2023-02-24T06:07:34.576Z,11.43
2023-02-24T06:10:04.906Z,10.15
2023-02-24T06:12:34.754Z,10.90
2023-02-24T06:15:07.642Z,10.85
2023-02-24T06:17:35.353Z,11.25
2023-02-24T06:20:12.977Z,11.30
2023-02-24T06:22:42.489Z,10.85
2023-02-24T06:25:14.271Z,10.50
2023-02-24T06:27:43.220Z,10.68
2023-02-24T06:30:11.522Z,11.23
2023-02-24T06:32:38.702Z,11.75
2023-02-24T06:35:06.235Z,10.75
2023-02-24T06:37:33.360Z,10.68
2023-02-24T06:40:01.651Z,11.55
2023-02-24T06:42:28.861Z,11.18
2023-02-24T06:44:56.277Z,11.02
2023-02-24T06:47:23.235Z,11.45
2023-02-24T06:49:50.470Z,11.13
2023-02-24T06:52:19.216Z,12.10
2023-02-24T06:54:52.564Z,13.43
2023-02-24T06:57:20.842Z,12.40
2023-02-24T06:59:49.155Z,12.18
2023-02-24T07:02:17.676Z,12.10
2023-02-24T07:04:45.116Z,12.70
2023-02-24T07:07:14.585Z,12.30
2023-02-24T07:09:42.719Z,11.80
2023-02-24T07:12:12.742Z,11.55
2023-02-24T07:14:40.680Z,11.23
2023-02-24T07:17:08.475Z,11.73
2023-02-24T07:19:36.785Z,12.38
2023-02-24T07:22:04.528Z,12.85
2023-02-24T07:24:39.319Z,12.57
2023-02-24T07:27:27.704Z,12.85
2023-02-24T07:29:55.031Z,12.40
2023-02-24T07:32:23.157Z,15.32
2023-02-24T07:34:50.434Z,13.05
2023-02-24T07:37:19.674Z,12.77
2023-02-24T07:39:47.475Z,12.63
2023-02-24T07:42:14.564Z,11.60
2023-02-24T07:44:44.598Z,14.18
2023-02-24T07:47:11.813Z,13.15
2023-02-24T07:49:41.031Z,12.88
2023-02-24T07:52:09.090Z,12.23
2023-02-24T07:54:39.261Z,12.55
2023-02-24T07:57:13.884Z,11.80
2023-02-24T08:02:15.615Z,12.25
2023-02-24T08:04:50.064Z,12.18
2023-02-24T08:07:30.829Z,13.25
2023-02-24T08:10:13.851Z,12.35
2023-02-24T08:12:42.942Z,12.48
2023-02-24T08:15:18.258Z,12.05
2023-02-24T08:20:16.305Z,11.15
2023-02-24T08:22:52.293Z,10.82
2023-02-24T08:25:36.189Z,11.70
2023-02-24T08:28:11.553Z,11.05
2023-02-24T08:30:45.817Z,11.25
2023-02-24T08:33:20.726Z,11.00
2023-02-24T08:36:01.631Z,10.95
2023-02-24T08:38:44.919Z,11.00
2023-02-24T08:41:21.380Z,11.38
2023-02-24T08:43:49.896Z,10.18
2023-02-24T08:46:26.504Z,11.07
2023-02-24T08:49:00.785Z,10.65
2023-02-24T08:51:35.180Z,9.88
2023-02-24T08:54:16.849Z,9.15
2023-02-24T08:56:56.009Z,11.55
2023-02-24T08:59:38.573Z,10.23
2023-02-24T09:02:29.420Z,10.30
2023-02-24T09:05:13.201Z,10.05
2023-02-24T09:07:42.367Z,10.52
2023-02-24T09:10:19.064Z,9.80
2023-02-24T09:12:49.255Z,9.38
2023-02-24T09:15:16.582Z,8.63
2023-02-24T09:17:45.248Z,8.85
2023-02-24T09:20:25.703Z,8.82
2023-02-24T09:23:07.395Z,10.50
2023-02-24T09:25:49.546Z,9.77
2023-02-24T09:28:24.703Z,9.18
2023-02-24T09:31:04.949Z,8.50
2023-02-24T09:33:39.070Z,8.48
2023-02-24T09:36:10.239Z,9.68
2023-02-24T09:39:01.217Z,8.27
2023-02-24T09:41:56.737Z,7.63
2023-02-24T09:44:44.385Z,8.13
2023-02-24T09:47:31.101Z,6.82
2023-02-24T09:50:40.284Z,6.68
2023-02-24T09:53:14.177Z,6.85
2023-02-24T09:59:01.153Z,6.85
2023-02-24T10:01:50.379Z,7.25
2023-02-24T10:05:07.230Z,7.97
2023-02-24T10:07:43.942Z,7.13
2023-02-24T10:10:36.796Z,6.95
2023-02-24T10:13:32.783Z,7.28
2023-02-24T10:16:08.520Z,6.35
2023-02-24T10:19:01.439Z,6.15
2023-02-24T10:22:01.603Z,6.80
2023-02-24T10:25:01.433Z,6.30
2023-02-24T10:27:42.421Z,6.85
2023-02-24T10:30:21.094Z,6.07
2023-02-24T10:33:02.329Z,5.82
2023-02-24T10:35:36.790Z,5.82
2023-02-24T10:38:05.454Z,5.80
2023-02-24T10:40:46.936Z,5.55
2023-02-24T10:43:20.801Z,6.07
2023-02-24T10:45:48.346Z,5.95
2023-02-24T10:48:41.506Z,5.40
2023-02-24T10:51:21.489Z,5.32
2023-02-24T10:54:09.935Z,4.78
2023-02-24T10:56:55.546Z,3.53
2023-02-24T10:59:25.444Z,3.67
2023-02-24T11:02:29.886Z,3.40
2023-02-24T11:05:25.018Z,4.25
2023-02-24T11:08:36.635Z,4.13
2023-02-24T11:11:30.738Z,4.25
2023-02-24T11:14:20.391Z,4.13
2023-02-24T11:17:12.683Z,4.38
2023-02-24T11:20:22.326Z,3.85
2023-02-24T11:22:55.779Z,4.05
2023-02-24T11:25:46.018Z,4.18
2023-02-24T11:28:48.987Z,4.32
2023-02-24T11:32:00.321Z,4.32
2023-02-24T11:34:58.333Z,4.55
2023-02-24T11:38:09.731Z,4.20
2023-02-24T11:40:46.440Z,3.72
2023-02-24T11:43:24.251Z,3.97
2023-02-24T11:46:00.727Z,4.05
2023-02-24T11:48:58.198Z,4.25
2023-02-24T11:51:31.967Z,3.58
2023-02-24T11:54:16.124Z,3.80
2023-02-24T11:56:50.255Z,4.00
2023-02-24T11:59:47.044Z,4.03
2023-02-24T12:02:47.185Z,3.70
2023-02-24T12:05:36.877Z,4.22
2023-02-24T12:08:24.298Z,3.42
2023-02-24T12:11:01.679Z,5.28
2023-02-24T12:13:42.345Z,4.45
2023-02-24T12:16:33.783Z,3.63
2023-02-24T12:19:51.814Z,3.22
2023-02-24T12:22:19.176Z,2.33
2023-02-24T12:24:52.061Z,2.50
2023-02-24T12:27:46.657Z,2.38
2023-02-24T12:30:38.252Z,2.80
2023-02-24T12:33:21.310Z,2.47
2023-02-24T12:36:03.100Z,3.15
2023-02-24T12:38:55.752Z,3.53
2023-02-24T12:41:43.284Z,3.70
2023-02-24T12:44:41.742Z,3.67
2023-02-24T12:47:21.465Z,3.55
2023-02-24T12:49:57.296Z,3.72
2023-02-24T12:53:04.802Z,3.95
2023-02-24T12:55:47.949Z,3.53
2023-02-24T12:58:45.788Z,3.28
2023-02-24T13:01:23.470Z,4.50
2023-02-24T13:04:35.485Z,3.97
2023-02-24T13:07:47.812Z,4.60
2023-02-24T13:10:35.081Z,3.90
2023-02-24T13:13:17.684Z,3.90
2023-02-24T13:15:58.774Z,4.28
2023-02-24T13:18:39.625Z,4.55
2023-02-24T13:21:09.250Z,3.97
2023-02-24T13:23:42.945Z,4.20
2023-02-24T13:26:10.659Z,4.53
2023-02-24T13:28:38.648Z,4.65
2023-02-24T13:31:12.735Z,4.25
2023-02-24T13:33:44.957Z,4.07
2023-02-24T13:36:22.773Z,4.63
2023-02-24T13:39:06.854Z,3.42
2023-02-24T13:41:40.857Z,3.85
2023-02-24T13:44:29.405Z,4.28
2023-02-24T13:47:38.745Z,3.70
2023-02-24T13:50:25.456Z,3.60
2023-02-24T13:53:33.944Z,3.20
2023-02-24T13:56:49.431Z,2.97
2023-02-24T13:59:57.742Z,3.13
2023-02-24T14:02:31.032Z,2.53
2023-02-24T14:05:08.448Z,3.28
2023-02-24T14:07:39.538Z,2.75
2023-02-24T14:10:20.449Z,2.50
2023-02-24T14:12:50.483Z,2.22
2023-02-24T14:15:25.728Z,3.17
2023-02-24T14:18:03.978Z,3.15
2023-02-24T14:20:38.051Z,2.67
2023-02-24T14:23:29.853Z,2.47
2023-02-24T14:26:06.504Z,3.10
2023-02-24T14:28:38.540Z,3.00
2023-02-24T14:31:16.929Z,3.90
2023-02-24T14:33:45.908Z,3.13
2023-02-24T14:36:26.321Z,4.22
2023-02-24T14:39:04.633Z,3.05
2023-02-24T14:41:31.733Z,3.25
2023-02-24T14:44:25.815Z,3.60
2023-02-24T14:46:59.248Z,3.70
2023-02-24T14:49:33.839Z,2.90
2023-02-24T14:52:22.336Z,3.22
2023-02-24T14:55:10.858Z,2.75
2023-02-24T14:57:49.819Z,3.47
2023-02-24T15:00:22.105Z,3.35
2023-02-24T15:03:02.994Z,3.53
2023-02-24T15:05:30.765Z,3.22
2023-02-24T15:07:58.707Z,3.50
2023-02-24T15:10:30.497Z,3.20
2023-02-24T15:13:27.631Z,3.40
2023-02-24T15:15:57.048Z,4.18
2023-02-24T15:18:29.115Z,5.78
2023-02-24T15:21:04.005Z,3.85
2023-02-24T15:23:35.428Z,3.35
2023-02-24T15:26:08.688Z,3.80
2023-02-24T15:28:37.615Z,3.90
2023-02-24T15:31:18.118Z,3.55
2023-02-24T15:33:58.011Z,3.40
2023-02-24T15:36:34.954Z,3.90
2023-02-24T15:39:07.955Z,4.30
2023-02-24T15:41:46.750Z,4.57
2023-02-24T15:44:33.161Z,3.92
2023-02-24T15:47:22.796Z,4.80
2023-02-24T15:49:49.932Z,4.10
2023-02-24T15:52:24.385Z,4.63
2023-02-24T15:54:52.893Z,5.30
2023-02-24T15:58:17.989Z,4.50
2023-02-24T16:00:45.688Z,4.63
2023-02-24T16:03:13.079Z,4.35
2023-02-24T16:05:40.744Z,4.82
2023-02-24T16:08:16.640Z,4.95
2023-02-24T16:10:43.849Z,4.40
2023-02-24T16:13:30.434Z,4.45
2023-02-24T16:15:57.597Z,5.30
2023-02-24T16:18:26.016Z,4.57
2023-02-24T16:20:56.981Z,4.50
2023-02-24T16:23:26.752Z,4.32
2023-02-24T16:25:59.862Z,4.65
2023-02-24T16:28:27.953Z,4.22
2023-02-24T16:30:55.019Z,4.68
2023-02-24T16:33:23.715Z,4.28
2023-02-24T16:35:54.964Z,4.70
2023-02-24T16:38:26.564Z,5.38
2023-02-24T16:40:54.789Z,5.30
2023-02-24T16:43:22.082Z,5.50
2023-02-24T16:45:50.255Z,5.20
2023-02-24T16:48:26.469Z,4.90
2023-02-24T16:50:54.019Z,4.10
2023-02-24T16:53:24.460Z,4.60
2023-02-24T16:55:52.021Z,4.68
2023-02-24T16:58:19.819Z,4.35
2023-02-24T17:00:50.370Z,4.13
2023-02-24T17:03:31.215Z,4.50
2023-02-24T17:05:58.255Z,4.18
2023-02-24T17:08:25.718Z,4.35
2023-02-24T17:10:54.508Z,4.25
2023-02-24T17:13:22.175Z,4.85
2023-02-24T17:15:55.345Z,4.68
2023-02-24T17:18:25.118Z,5.05
2023-02-24T17:20:53.681Z,5.00
2023-02-24T17:23:21.809Z,4.47
2023-02-24T17:25:54.377Z,4.57
2023-02-24T17:28:22.286Z,4.65
2023-02-24T17:30:49.448Z,4.05
2023-02-24T17:33:16.902Z,4.68
2023-02-24T17:35:47.094Z,5.43
2023-02-24T17:38:16.960Z,5.60
2023-02-24T17:40:45.709Z,6.20
2023-02-24T17:43:13.303Z,4.10
2023-02-24T17:45:46.688Z,4.20
2023-02-24T17:48:16.082Z,4.28
2023-02-24T17:50:45.949Z,4.78
2023-02-24T17:53:14.584Z,4.78
2023-02-24T17:55:55.815Z,4.30
2023-02-24T17:58:27.158Z,4.43
2023-02-24T18:00:54.240Z,5.05
2023-02-24T18:03:21.485Z,5.25
2023-02-24T18:05:48.718Z,4.90
2023-02-24T18:08:16.038Z,4.90
2023-02-24T18:10:43.055Z,5.07
2023-02-24T18:13:10.388Z,4.53
2023-02-24T18:15:39.324Z,4.40
2023-02-24T18:18:06.659Z,4.85
2023-02-24T18:20:33.928Z,4.30
2023-02-24T18:23:01.187Z,4.68
2023-02-24T18:25:28.324Z,4.63
2023-02-24T18:27:55.822Z,5.45
2023-02-24T18:30:22.815Z,4.60
2023-02-24T18:32:51.911Z,4.90
2023-02-24T18:35:22.403Z,5.25
2023-02-24T18:37:56.458Z,4.95
2023-02-24T18:40:25.609Z,5.15
2023-02-24T18:42:53.248Z,5.22
2023-02-24T18:45:21.946Z,5.05
2023-02-24T18:47:53.284Z,5.28
2023-02-24T18:50:25.009Z,5.43
2023-02-24T18:52:52.382Z,4.72
2023-02-24T18:55:19.954Z,4.80
2023-02-24T18:57:47.891Z,5.68
2023-02-24T19:00:15.652Z,4.75
2023-02-24T19:02:43.068Z,5.43
2023-02-24T19:05:10.839Z,5.72
2023-02-24T19:07:38.191Z,4.78
2023-02-24T19:10:06.336Z,5.43
2023-02-24T19:12:33.654Z,5.95
2023-02-24T19:15:00.754Z,5.60
2023-02-24T19:17:28.068Z,6.55
2023-02-24T19:19:55.126Z,5.90
2023-02-24T19:22:23.146Z,6.82
2023-02-24T19:24:50.663Z,5.35
2023-02-24T19:27:18.603Z,5.35
2023-02-24T19:29:45.905Z,5.93
2023-02-24T19:32:14.186Z,5.65
2023-02-24T19:34:42.927Z,6.05
2023-02-24T19:37:11.626Z,5.95
2023-02-24T19:39:39.158Z,5.90
2023-02-24T19:42:07.001Z,6.28
2023-02-24T19:44:34.962Z,5.75
2023-02-24T19:47:02.710Z,5.45
2023-02-24T19:49:29.983Z,6.00
2023-02-24T19:51:59.360Z,6.75
2023-02-24T19:54:28.218Z,7.63
2023-02-24T19:56:58.031Z,6.05
2023-02-24T19:59:25.549Z,6.95
2023-02-24T20:01:54.432Z,6.57
2023-02-24T20:04:23.939Z,7.03
2023-02-24T20:06:52.102Z,7.43
2023-02-24T20:09:21.996Z,7.28
2023-02-24T20:11:51.769Z,6.93
2023-02-24T20:14:20.314Z,7.78
2023-02-24T20:16:47.893Z,8.30
2023-02-24T20:19:15.866Z,8.48
2023-02-24T20:21:43.893Z,7.63
2023-02-24T20:24:15.001Z,7.80
2023-02-24T20:26:49.728Z,7.10
2023-02-24T20:29:21.008Z,6.72
2023-02-24T20:31:48.877Z,7.28
2023-02-24T20:34:17.035Z,6.40
2023-02-24T20:36:44.815Z,6.20
2023-02-24T20:39:14.543Z,5.10
2023-02-24T20:41:42.058Z,5.97
2023-02-24T20:44:10.657Z,5.22
2023-02-24T20:46:37.994Z,4.50
2023-02-24T20:49:09.407Z,5.30
2023-02-24T20:51:38.433Z,4.55
2023-02-24T20:54:07.665Z,4.80
2023-02-24T20:56:38.019Z,4.95
2023-02-24T20:59:18.902Z,5.43
2023-02-24T21:01:48.491Z,4.78
2023-02-24T21:04:19.841Z,3.85
2023-02-24T21:06:51.435Z,4.05
2023-02-24T21:09:18.580Z,3.90
2023-02-24T21:11:46.023Z,4.03
2023-02-24T21:14:16.274Z,3.78
2023-02-24T21:16:45.726Z,3.25
2023-02-24T21:19:12.822Z,3.33
2023-02-24T21:21:40.253Z,4.65
2023-02-24T21:24:07.957Z,3.67
2023-02-24T21:26:35.322Z,3.50
2023-02-24T21:29:02.288Z,4.40
2023-02-24T21:31:29.630Z,2.70
2023-02-24T21:33:57.308Z,3.60
2023-02-24T21:36:26.695Z,3.15
2023-02-24T21:38:55.254Z,2.58
2023-02-24T21:41:24.061Z,2.60
2023-02-24T21:43:55.557Z,2.50
2023-02-24T21:46:28.225Z,3.28
2023-02-24T21:48:59.769Z,2.75
2023-02-24T21:51:29.267Z,2.67
2023-02-24T21:53:57.842Z,3.08
2023-02-24T21:56:28.790Z,2.53
2023-02-24T21:59:05.914Z,2.70
2023-02-24T22:01:41.227Z,2.42
2023-02-24T22:06:43.740Z,2.40
2023-02-24T22:09:14.429Z,2.33
2023-02-24T22:11:42.264Z,2.42
2023-02-24T22:14:12.377Z,1.80
2023-02-24T22:16:41.081Z,2.85
2023-02-24T22:19:09.540Z,2.30
2023-02-24T22:21:39.349Z,3.00
2023-02-24T22:24:07.229Z,2.40
2023-02-24T22:26:34.509Z,2.20
2023-02-24T22:29:02.390Z,2.10
2023-02-24T22:31:33.997Z,2.53
2023-02-24T22:34:02.326Z,2.17
2023-02-24T22:36:33.975Z,2.53
2023-02-24T22:39:03.176Z,3.05
2023-02-24T22:41:34.074Z,2.17
2023-02-24T22:44:04.034Z,2.03
2023-02-24T22:46:36.812Z,1.70
2023-02-24T22:49:05.385Z,1.60
2023-02-24T22:51:32.839Z,1.88
2023-02-24T22:54:00.036Z,1.45
2023-02-24T22:56:29.207Z,1.83
2023-02-24T22:58:57.794Z,1.30
2023-02-24T23:01:32.373Z,1.33
2023-02-24T23:04:05.705Z,1.15
2023-02-24T23:06:34.801Z,1.20
2023-02-24T23:09:03.781Z,1.23
2023-02-24T23:11:43.394Z,1.23
2023-02-24T23:14:14.453Z,1.63
2023-02-24T23:16:44.673Z,1.58
2023-02-24T23:19:17.027Z,1.30
2023-02-24T23:21:49.846Z,1.17
2023-02-24T23:24:20.249Z,1.27
2023-02-24T23:26:57.978Z,1.40
2023-02-24T23:29:26.703Z,1.38
2023-02-24T23:31:54.387Z,1.27
2023-02-24T23:34:21.668Z,1.48
2023-02-24T23:36:48.998Z,1.40
2023-02-24T23:39:24.011Z,1.20
2023-02-24T23:41:56.955Z,1.30
2023-02-24T23:44:24.493Z,1.42
2023-02-24T23:46:51.741Z,1.70
2023-02-24T23:49:18.829Z,1.55
2023-02-24T23:51:48.838Z,1.70
2023-02-24T23:54:18.422Z,2.10
2023-02-24T23:56:46.478Z,1.60
2023-02-24T23:59:14.024Z,1.48
